DIRECCIÓN GENERAL DE AERONÁUTICA CIVIL
DIRECCIÓN METEOROLÓGICA DE CHILE
INFORMACIÓN METAR Y TAF

FIR SANTIAGO

Estación: SCSE
METAR SCSE 020400Z 30004KT 4000 BR OVC005 11/10 Q1015=

TAF SCSE 012240Z 0200/0224 VRB02KT 9999 SCT040 BKN180 TX17/0218Z TN09 /0210Z TEMPO 0200/0202 28005KT BECMG 0201/0203 VRB02KT CAVOK BECMG 0210/0212 30005KT=

Estación: SCER
METAR SCER 161100Z 00000KT 7000 OVC014 12/10 Q1015=

TAF SCER NIL=

Estación: SCRD
METAR SCRD 012200Z 33016KT 0050 FG VV000 11/11 Q1017 RESHRA=

TAF AMD SCRD 011730Z 0118/0124 33020KT 0500 -DZ OVC003 TX12/0119Z TN09/0124Z BECMG 0118/0120 35013KT 3000 SHRA SCT005 BKN010 BECMG 0120/0122 5000 -SHRA SCT010 BKN020=

Estación: SCVM
METAR SCVM 020400Z 00000KT 3000 BR OVC009 12/11 Q1017=

TAF SCVM 012241Z 0200/0224 29005KT 9999 BKN010 TX16/0219Z TN08/0210Z TEMPO 0200/0202 5000 BR BKN005 BECMG 0202/0204 VRB02KT SCT020 BKN040 BECMG 0208/0210 29008KT SCT040 BKN130 TEMPO 0220/0223 35010KT 7000 SHRA SCT050 BKN080=

Estación: SCTB
METAR SCTB 012200Z 00000KT 9999 SCT060 BKN080 13/09 Q1016=

TAF SCTB 011105Z 0112/0124 30003KT 9999 BKN050 OVC080 TX16/3118Z TN08/3112Z BECMG 0115/0117 33005KT 5000 SHRA SCT030 OVC050 BECMG 0120 /0122 02003KT 7000 BKN050=

Estación: SCEL
METAR SCEL 020400Z 15004KT 9999 SCT015 BKN035 11/09 Q1017 NOSIG=

TAF AMD SCEL 020309Z 0203/0224 15005KT 9999 SCT015 BKN040 TX17/0218Z TN08/0210Z BECMG 0206/0208 VRB02KT 5000 HZ SCT040 SCT170 TEMPO 0210/ 0212 3000 BR SCT090 BKN150 BECMG 0218/0220 20010KT 7000 -SHRA BKN060 BKN090 TEMPO 0220/0223 33015KT 5000 SHRA BKN030 OVC050=

Estación: SCSN
METAR SCSN 020000Z 34006KT 7000 OVC008 13/12 Q1017=

TAF SCSN 011118Z 0112/0124 33018KT 6000 BKN008 TX13/0119Z TN08/0124Z TEMPO 0118/0120 01020KT 5000 -SHRA BR BKN008 BECMG 0120/ 0122 33008KT 9999 SCT015 BKN030=

Estación: SCRG
METAR SCRG 012100Z 02009KT 4000 +RA BKN030 OVC080 11/10 Q1015=

TAF SCRG 011115Z 0112/0124 19010KT 9999 BKN050 OVC080 TX13/0118Z TN10/0112Z BECMG 0114/0116 30010KT 7000 SHRA SCT030 OVC050=

Estación: SCIC
METAR SCIC 020400Z AUTO 08008KT 9999 FEW039 10/06 Q1016=

TAF SCIC 011121Z 0112/0124 03007KT 8000 SHRA BKN025 OVC030 TX13/0119Z TN10/0112Z BECMG 0115/0117 03015KT 5000 RA BKN010 OVC025=

Estación: SCCH
METAR SCCH 012200Z 01012KT 5000 -SHRA BKN020 13/11 Q1013=

TAF SCCH 011121Z 0112/0124 01010KT 9999 BKN025 OVC040 TX13/0118Z TN10/0112Z BECMG 0112/0114 01015KT 7000 SHRA BKN010 OVC025=

Estación: SCIE
METAR SCIE 020400Z 36013KT 9999 SCT010 OVC020 13/12 Q1014=

TAF SCIE 012243Z 0200/0224 35010KT 9999 SCT015 SCT030 TX14/0218Z TN09/0210Z TEMPO 0200/0202 01015KT 6000 -SHRA SCT015 BKN020 BECMG 0204/0206 36010KT 8000 BKN050 TEMPO 0206/0209 01015KT 5000 -SHRA BECMG 0208/0210 9999 NSW SCT030 BKN050 TEMPO 0220/0223 01015KT 5000 SHRA BKN030=

Estación: SCGE
METAR SCGE 012200Z 35006KT 3000 RA BKN001 OVC005 09/08 Q1010=

TAF AMD SCGE 011517Z 0116/0124 01015KT 5000 -SHRA SCT010 OVC015 TX13/ 0118Z TN11/0116Z TEMPO 0116/0120 35015KT 2000 RA BKN005 OVC010=


Volver